Kindakun Rocks, Canada
Current Conditions -  °F | °C
As of 4:35 PM on Saturday 22 Nov 2014 (Local Time) from CYZP Reporting Station
Overcast Overcast  
Wind Chill: 42°   Ceiling: 3800
Heat Index: 45°   Visibility: 9mi
Dew Point: 43°   Wind: 5mph
Humidity: 93%   Direction: 110°ESE
Pressure: 29.58"   Gusts: NA
Location:  53.32°N, 132.75°W
Report Text: CYZP 230035Z AUTO 11004KT 9SM BKN038 BKN044 OVC055 07/06 A2958 RMK SLP015
Loading
Personal Weather Stations






























Interactive Weather Map New forecast layout! Learn more

10-Day Weather Forecast

Advertisements
Track Severe Weather on mobile